Time;durP1;ratioP1;P1;durP2;ratioP2;P2;SDS_P1;SDS_P2;PMS_P1;PMS_P2;Temp;Humidity;BMP_temperature;BMP_pressure;BME280_temperature;BME280_humidity;BME280_pressure;Samples;Min_cycle;Max_cycle;Signal;HPM_P1;HPM_P2
2023/12/13 00:00:21;;;;;;;31.52;18.40;;;;;;;;;;4775652;29;20089;-96
2023/12/13 00:02:48;;;;;;;36.05;18.33;;;;;;;;;;4792648;29;20053;-96
2023/12/13 00:05:14;;;;;;;26.88;17.70;;;;;;;;;;4793858;29;20057;-95
2023/12/13 00:07:40;;;;;;;31.98;17.17;;;;;;;;;;4794394;29;20046;-96
2023/12/13 00:10:06;;;;;;;31.27;17.83;;;;;;;;;;4794667;29;20042;-96
2023/12/13 00:12:33;;;;;;;28.08;17.58;;;;;;;;;;4779309;29;20108;-96
2023/12/13 00:14:59;;;;;;;30.65;17.83;;;;;;;;;;4793770;29;20138;-96
2023/12/13 00:17:25;;;;;;;28.88;17.00;;;;;;;;;;4794115;29;20103;-96
2023/12/13 00:19:51;;;;;;;25.67;15.27;;;;;;;;;;4783992;29;20042;-96
2023/12/13 00:22:17;;;;;;;27.88;15.45;;;;;;;;;;4790656;29;20050;-96
2023/12/13 00:24:44;;;;;;;32.97;17.65;;;;;;;;;;4805412;29;20047;-95
2023/12/13 00:27:10;;;;;;;31.83;16.50;;;;;;;;;;4789940;29;20045;-95
2023/12/13 00:29:37;;;;;;;28.35;14.90;;;;;;;;;;4810927;29;20035;-95
2023/12/13 00:32:03;;;;;;;26.00;15.25;;;;;;;;;;4803021;29;20481;-94
2023/12/13 00:34:29;;;;;;;27.33;14.68;;;;;;;;;;4782760;29;20054;-95
2023/12/13 00:36:55;;;;;;;24.13;14.40;;;;;;;;;;4778791;29;20047;-95
2023/12/13 00:39:21;;;;;;;23.50;13.90;;;;;;;;;;4778221;29;20272;-96
2023/12/13 00:41:47;;;;;;;26.00;13.73;;;;;;;;;;4793461;29;20043;-94
2023/12/13 00:44:13;;;;;;;26.42;14.75;;;;;;;;;;4793412;29;20172;-95
2023/12/13 00:46:40;;;;;;;23.42;13.00;;;;;;;;;;4793616;29;20051;-93
2023/12/13 00:49:06;;;;;;;24.80;15.27;;;;;;;;;;4792925;29;20497;-96
2023/12/13 00:51:32;;;;;;;23.35;12.38;;;;;;;;;;4792805;29;20039;-96
2023/12/13 00:53:58;;;;;;;22.02;12.07;;;;;;;;;;4778513;29;20108;-96
2023/12/13 00:56:24;;;;;;;22.38;12.10;;;;;;;;;;4778025;29;20096;-96
2023/12/13 00:58:50;;;;;;;22.85;12.07;;;;;;;;;;4777761;29;20419;-95
2023/12/13 01:01:16;;;;;;;19.38;12.02;;;;;;;;;;4778193;29;20047;-95
2023/12/13 01:03:42;;;;;;;19.27;11.00;;;;;;;;;;4792502;29;20108;-95
2023/12/13 01:06:09;;;;;;;18.35;11.15;;;;;;;;;;4807989;29;20047;-91
2023/12/13 01:08:36;;;;;;;19.95;11.15;;;;;;;;;;4792800;29;20054;-94
2023/12/13 01:11:02;;;;;;;18.80;11.27;;;;;;;;;;4792336;29;20047;-94
2023/12/13 01:13:28;;;;;;;18.17;9.30;;;;;;;;;;4792784;29;20055;-94
2023/12/13 01:16:13;;;;;;;16.33;9.68;;;;;;;;;;4777878;29;20135;-93
2023/12/13 01:18:39;;;;;;;17.00;9.80;;;;;;;;;;4793062;29;20047;-96
2023/12/13 01:21:05;;;;;;;16.02;8.75;;;;;;;;;;4777840;29;20057;-95
2023/12/13 01:23:31;;;;;;;18.10;9.63;;;;;;;;;;4792408;29;20108;-95
2023/12/13 01:25:57;;;;;;;17.92;9.05;;;;;;;;;;4792698;29;20050;-94
2023/12/13 01:28:23;;;;;;;16.38;8.32;;;;;;;;;;4792818;29;20069;-96
2023/12/13 01:30:49;;;;;;;17.15;10.23;;;;;;;;;;4792815;29;20050;-94
2023/12/13 01:33:15;;;;;;;14.23;8.82;;;;;;;;;;4777881;29;20378;-96
2023/12/13 01:35:41;;;;;;;19.00;9.50;;;;;;;;;;4777663;29;20049;-93
2023/12/13 01:38:07;;;;;;;16.13;7.78;;;;;;;;;;4777754;29;20115;-95
2023/12/13 01:40:34;;;;;;;18.52;8.48;;;;;;;;;;4792917;29;20126;-95
2023/12/13 01:43:00;;;;;;;12.30;7.53;;;;;;;;;;4791856;29;20054;-95
2023/12/13 01:45:26;;;;;;;15.95;8.30;;;;;;;;;;4792162;29;20129;-96
2023/12/13 01:47:52;;;;;;;15.05;8.75;;;;;;;;;;4792228;29;20074;-96
2023/12/13 01:50:18;;;;;;;15.25;8.80;;;;;;;;;;4777303;29;20054;-95
2023/12/13 01:52:44;;;;;;;14.75;8.77;;;;;;;;;;4792458;29;20543;-96
2023/12/13 01:55:10;;;;;;;14.88;8.20;;;;;;;;;;4807285;29;20049;-96
2023/12/13 01:57:37;;;;;;;16.75;8.55;;;;;;;;;;4792181;29;20047;-94
2023/12/13 02:00:04;;;;;;;14.82;8.10;;;;;;;;;;4779358;29;20104;-92
2023/12/13 02:02:30;;;;;;;14.82;9.05;;;;;;;;;;4796113;29;20111;-95
2023/12/13 02:04:56;;;;;;;19.50;9.50;;;;;;;;;;4795982;29;20054;-95
2023/12/13 02:07:23;;;;;;;19.90;9.23;;;;;;;;;;4781620;29;20049;-95
2023/12/13 02:09:49;;;;;;;17.58;9.48;;;;;;;;;;4814581;29;20051;-94
2023/12/13 02:12:15;;;;;;;17.45;8.88;;;;;;;;;;4784186;29;20082;-95
2023/12/13 02:14:41;;;;;;;17.45;9.45;;;;;;;;;;4793990;29;20508;-95
2023/12/13 02:17:07;;;;;;;19.13;9.07;;;;;;;;;;4791387;29;20122;-96
2023/12/13 02:19:33;;;;;;;19.17;9.43;;;;;;;;;;4777161;29;20043;-96
2023/12/13 02:21:59;;;;;;;21.15;9.73;;;;;;;;;;4776653;29;20482;-94
2023/12/13 02:24:30;;;;;;;16.35;9.70;;;;;;;;;;4791039;29;20070;-94
2023/12/13 02:26:56;;;;;;;25.25;11.00;;;;;;;;;;4791439;29;20050;-96
2023/12/13 02:29:22;;;;;;;19.15;9.82;;;;;;;;;;4791084;29;20493;-96
2023/12/13 02:31:48;;;;;;;19.63;9.50;;;;;;;;;;4776449;29;20076;-94
2023/12/13 02:34:15;;;;;;;22.25;10.85;;;;;;;;;;4790322;29;20108;-93
2023/12/13 02:36:44;;;;;;;21.60;10.82;;;;;;;;;;4776672;29;20055;-95
2023/12/13 02:39:11;;;;;;;25.02;11.43;;;;;;;;;;4791049;29;20057;-96
2023/12/13 02:41:37;;;;;;;18.83;10.95;;;;;;;;;;4776250;29;20086;-95
2023/12/13 02:44:03;;;;;;;24.13;11.63;;;;;;;;;;4790393;29;20047;-93
2023/12/13 02:46:29;;;;;;;16.83;10.75;;;;;;;;;;4790502;29;20499;-93
2023/12/13 02:48:58;;;;;;;18.48;10.68;;;;;;;;;;4775015;29;20146;-93
2023/12/13 02:51:24;;;;;;;21.75;10.52;;;;;;;;;;4789842;29;20514;-93
2023/12/13 02:53:50;;;;;;;22.55;12.18;;;;;;;;;;4789554;29;20047;-95
2023/12/13 02:56:16;;;;;;;25.90;12.50;;;;;;;;;;4790274;29;20057;-93
2023/12/13 02:58:42;;;;;;;23.33;11.95;;;;;;;;;;4775150;29;20050;-93
2023/12/13 03:01:08;;;;;;;24.33;12.05;;;;;;;;;;4789784;29;20143;-93
2023/12/13 03:03:34;;;;;;;26.67;13.30;;;;;;;;;;4775253;29;20051;-95
2023/12/13 03:06:00;;;;;;;22.55;12.52;;;;;;;;;;4774317;29;20055;-94
2023/12/13 03:08:26;;;;;;;34.40;14.43;;;;;;;;;;4789438;29;20507;-93
2023/12/13 03:10:52;;;;;;;21.92;12.07;;;;;;;;;;4789473;29;20051;-93
2023/12/13 03:13:19;;;;;;;27.42;13.25;;;;;;;;;;4788743;29;20073;-95
2023/12/13 03:15:45;;;;;;;25.52;13.93;;;;;;;;;;4774655;29;20051;-93
2023/12/13 03:18:11;;;;;;;26.77;14.20;;;;;;;;;;4789796;29;20055;-94
2023/12/13 03:20:37;;;;;;;28.20;14.55;;;;;;;;;;4804449;29;20050;-95
2023/12/13 03:23:07;;;;;;;38.15;16.25;;;;;;;;;;4774409;29;20063;-92
2023/12/13 03:25:33;;;;;;;43.17;17.50;;;;;;;;;;4775495;29;20464;-95
2023/12/13 03:27:59;;;;;;;31.48;16.00;;;;;;;;;;4785282;29;20045;-94
2023/12/13 03:30:25;;;;;;;26.80;15.05;;;;;;;;;;4789587;29;20042;-93
2023/12/13 03:32:51;;;;;;;30.50;16.55;;;;;;;;;;4789448;29;20046;-93
2023/12/13 03:35:17;;;;;;;31.27;15.90;;;;;;;;;;4773859;29;20051;-92
2023/12/13 03:37:43;;;;;;;37.83;16.85;;;;;;;;;;4771607;29;20047;-92
2023/12/13 03:40:10;;;;;;;33.80;15.18;;;;;;;;;;4789545;29;20043;-95
2023/12/13 03:42:36;;;;;;;31.13;15.80;;;;;;;;;;4789568;29;20054;-95
2023/12/13 03:45:02;;;;;;;40.08;17.20;;;;;;;;;;4774440;29;20051;-94
2023/12/13 03:47:28;;;;;;;36.75;16.95;;;;;;;;;;4774844;29;20042;-94
2023/12/13 03:49:54;;;;;;;27.42;15.20;;;;;;;;;;4789533;29;20051;-96
2023/12/13 03:52:20;;;;;;;29.75;14.65;;;;;;;;;;4774345;29;20043;-96
2023/12/13 03:54:46;;;;;;;31.02;16.08;;;;;;;;;;4789456;29;20066;-95
2023/12/13 03:57:12;;;;;;;29.17;15.95;;;;;;;;;;4785495;29;20083;-96
2023/12/13 03:59:39;;;;;;;43.75;15.75;;;;;;;;;;4774860;29;20047;-95
2023/12/13 04:02:05;;;;;;;25.15;14.68;;;;;;;;;;4804720;29;20058;-95
2023/12/13 04:04:31;;;;;;;27.48;15.10;;;;;;;;;;4774236;29;20067;-95
2023/12/13 04:06:57;;;;;;;29.00;15.55;;;;;;;;;;4774624;29;20058;-96
2023/12/13 04:09:23;;;;;;;32.72;17.02;;;;;;;;;;4774989;29;20493;-95
2023/12/13 04:11:49;;;;;;;30.80;15.30;;;;;;;;;;4775108;29;20138;-94
2023/12/13 04:14:15;;;;;;;31.45;15.82;;;;;;;;;;4789360;29;20065;-96
2023/12/13 04:16:41;;;;;;;31.85;16.33;;;;;;;;;;4790225;29;20054;-95
2023/12/13 04:19:07;;;;;;;34.33;17.23;;;;;;;;;;4789614;29;20099;-96
2023/12/13 04:21:33;;;;;;;32.83;15.52;;;;;;;;;;4790807;29;20106;-95
2023/12/13 04:24:01;;;;;;;32.95;15.40;;;;;;;;;;4792144;29;20125;-95
2023/12/13 04:26:28;;;;;;;32.15;16.70;;;;;;;;;;4777470;29;20072;-96
2023/12/13 04:28:54;;;;;;;30.17;15.20;;;;;;;;;;4792686;29;20058;-93
2023/12/13 04:31:20;;;;;;;28.38;15.45;;;;;;;;;;4792070;29;20090;-96
2023/12/13 04:33:46;;;;;;;30.52;15.23;;;;;;;;;;4806434;29;20086;-96
2023/12/13 04:36:12;;;;;;;30.05;14.95;;;;;;;;;;4791332;29;20046;-96
2023/12/13 04:38:38;;;;;;;32.70;14.70;;;;;;;;;;4778309;29;20046;-96
2023/12/13 04:41:04;;;;;;;37.10;16.27;;;;;;;;;;4795068;29;20043;-95
2023/12/13 04:43:30;;;;;;;30.63;14.85;;;;;;;;;;4792317;29;20138;-96
2023/12/13 04:45:57;;;;;;;23.50;13.95;;;;;;;;;;4795831;29;20034;-96
2023/12/13 04:48:23;;;;;;;29.13;14.98;;;;;;;;;;4795239;29;20055;-96
2023/12/13 04:50:49;;;;;;;28.33;15.38;;;;;;;;;;4779251;29;20104;-95
2023/12/13 04:53:15;;;;;;;34.05;15.95;;;;;;;;;;4793316;29;20084;-91
2023/12/13 04:55:41;;;;;;;28.85;14.98;;;;;;;;;;4778021;29;20556;-94
2023/12/13 04:58:07;;;;;;;31.40;15.43;;;;;;;;;;4778488;29;20130;-92
2023/12/13 05:00:33;;;;;;;27.67;15.35;;;;;;;;;;4792557;29;20046;-92
2023/12/13 05:02:59;;;;;;;28.58;15.50;;;;;;;;;;4777715;29;20047;-91
2023/12/13 05:05:25;;;;;;;32.85;14.98;;;;;;;;;;4792719;29;20043;-94
2023/12/13 05:07:51;;;;;;;23.48;14.30;;;;;;;;;;4792389;29;20055;-92
2023/12/13 05:10:17;;;;;;;27.88;14.45;;;;;;;;;;4778122;29;20050;-93
2023/12/13 05:12:43;;;;;;;30.60;15.88;;;;;;;;;;4778921;29;20142;-94
2023/12/13 05:15:10;;;;;;;29.33;15.80;;;;;;;;;;4777351;29;20523;-93
2023/12/13 05:17:36;;;;;;;29.02;14.90;;;;;;;;;;4792036;29;20042;-92
2023/12/13 05:20:03;;;;;;;29.25;14.98;;;;;;;;;;4792812;29;20141;-93
2023/12/13 05:22:30;;;;;;;31.65;15.52;;;;;;;;;;4777100;29;20496;-94
2023/12/13 05:24:56;;;;;;;27.05;14.00;;;;;;;;;;4790297;29;20132;-92
2023/12/13 05:27:22;;;;;;;25.55;14.20;;;;;;;;;;4789770;29;20047;-93
2023/12/13 05:29:48;;;;;;;29.30;15.40;;;;;;;;;;4777401;29;20118;-95
2023/12/13 05:32:14;;;;;;;29.83;15.73;;;;;;;;;;4777187;29;20539;-94
2023/12/13 05:34:40;;;;;;;25.73;14.02;;;;;;;;;;4777180;29;20615;-93
2023/12/13 05:37:06;;;;;;;27.25;14.75;;;;;;;;;;4793430;29;20058;-93
2023/12/13 05:39:33;;;;;;;28.73;14.98;;;;;;;;;;4797611;29;20045;-93
2023/12/13 05:41:59;;;;;;;28.85;15.27;;;;;;;;;;4796204;29;20086;-94
2023/12/13 05:44:25;;;;;;;25.83;15.35;;;;;;;;;;4792690;29;20137;-94
2023/12/13 05:46:51;;;;;;;26.02;14.07;;;;;;;;;;4780327;29;20102;-93
2023/12/13 05:49:18;;;;;;;27.85;15.35;;;;;;;;;;4801284;29;20050;-95
2023/12/13 05:51:44;;;;;;;29.10;16.25;;;;;;;;;;4809663;29;20082;-96
2023/12/13 05:54:10;;;;;;;27.88;15.73;;;;;;;;;;4777734;29;20080;-94
2023/12/13 05:56:36;;;;;;;27.38;15.07;;;;;;;;;;4777078;29;20086;-94
2023/12/13 05:59:02;;;;;;;25.98;14.07;;;;;;;;;;4791838;29;20050;-96
2023/12/13 06:01:28;;;;;;;24.88;14.88;;;;;;;;;;4776472;29;20394;-96
2023/12/13 06:03:54;;;;;;;26.20;15.40;;;;;;;;;;4791700;29;20066;-93
2023/12/13 06:06:20;;;;;;;29.27;15.82;;;;;;;;;;4790626;29;20072;-93
2023/12/13 06:08:46;;;;;;;32.28;16.00;;;;;;;;;;4791644;29;20180;-93
2023/12/13 06:11:12;;;;;;;25.35;15.45;;;;;;;;;;4790804;29;20042;-95
2023/12/13 06:13:38;;;;;;;24.08;14.82;;;;;;;;;;4806820;29;20103;-96
2023/12/13 06:16:06;;;;;;;31.77;15.48;;;;;;;;;;4792234;29;20051;-94
2023/12/13 06:18:32;;;;;;;25.38;15.68;;;;;;;;;;4791047;29;20051;-94
2023/12/13 06:20:58;;;;;;;26.92;15.35;;;;;;;;;;4791134;29;20055;-94
2023/12/13 06:23:24;;;;;;;28.33;15.23;;;;;;;;;;4790800;29;20061;-95
2023/12/13 06:25:50;;;;;;;25.08;15.15;;;;;;;;;;4775482;29;20039;-94
2023/12/13 06:28:16;;;;;;;28.67;15.70;;;;;;;;;;4790341;29;20046;-94
2023/12/13 06:30:42;;;;;;;31.73;17.13;;;;;;;;;;4790170;29;20049;-94
2023/12/13 06:33:08;;;;;;;27.48;16.23;;;;;;;;;;4775750;29;20050;-94
2023/12/13 06:35:36;;;;;;;27.35;16.75;;;;;;;;;;4788370;29;20043;-94
2023/12/13 06:38:02;;;;;;;31.73;16.10;;;;;;;;;;4775687;29;20082;-92
2023/12/13 06:40:28;;;;;;;28.02;16.77;;;;;;;;;;4788180;29;20051;-96
2023/12/13 06:42:54;;;;;;;27.00;16.83;;;;;;;;;;4770779;29;20105;-94
2023/12/13 06:45:20;;;;;;;26.20;14.98;;;;;;;;;;4775758;29;20103;-95
2023/12/13 06:47:48;;;;;;;29.27;16.85;;;;;;;;;;4790641;29;20063;-93
2023/12/13 06:50:14;;;;;;;33.70;18.17;;;;;;;;;;4775903;29;20051;-96
2023/12/13 06:52:40;;;;;;;30.55;16.73;;;;;;;;;;4790868;29;20042;-93
2023/12/13 06:55:07;;;;;;;28.88;15.38;;;;;;;;;;4775256;29;20512;-92
2023/12/13 06:57:33;;;;;;;28.23;15.27;;;;;;;;;;4772491;30;20043;-94
2023/12/13 06:59:59;;;;;;;32.78;14.70;;;;;;;;;;4802100;29;20051;-94
2023/12/13 07:02:25;;;;;;;26.67;15.85;;;;;;;;;;4790383;29;20051;-94
2023/12/13 07:04:51;;;;;;;29.55;15.70;;;;;;;;;;4790633;29;20157;-94
2023/12/13 07:07:17;;;;;;;37.55;16.70;;;;;;;;;;4805182;29;20058;-95
2023/12/13 07:09:44;;;;;;;25.40;15.63;;;;;;;;;;4775447;29;20043;-94
2023/12/13 07:12:10;;;;;;;31.08;17.50;;;;;;;;;;4776060;29;20146;-91
2023/12/13 07:14:36;;;;;;;36.13;16.75;;;;;;;;;;4790399;29;20561;-94
2023/12/13 07:17:03;;;;;;;26.45;15.65;;;;;;;;;;4775087;29;20074;-95
2023/12/13 07:19:29;;;;;;;29.80;17.45;;;;;;;;;;4789972;29;20043;-91
2023/12/13 07:21:55;;;;;;;29.20;16.73;;;;;;;;;;4775805;29;20051;-94
2023/12/13 07:24:21;;;;;;;34.00;20.58;;;;;;;;;;4774381;29;20054;-91
2023/12/13 07:26:48;;;;;;;33.65;19.48;;;;;;;;;;4789409;29;20051;-90
2023/12/13 07:29:14;;;;;;;34.75;18.45;;;;;;;;;;4805019;29;20413;-93
2023/12/13 07:31:40;;;;;;;36.83;19.95;;;;;;;;;;4783972;29;20047;-95
2023/12/13 07:34:07;;;;;;;35.53;18.42;;;;;;;;;;4789371;29;20043;-93
2023/12/13 07:36:33;;;;;;;34.28;16.48;;;;;;;;;;4791064;29;20058;-94
2023/12/13 07:38:59;;;;;;;30.05;17.40;;;;;;;;;;4773299;29;20132;-95
2023/12/13 07:41:25;;;;;;;33.10;16.30;;;;;;;;;;4790793;29;20058;-91
2023/12/13 07:43:52;;;;;;;32.60;16.17;;;;;;;;;;4789722;29;20104;-93
2023/12/13 07:46:18;;;;;;;35.03;17.77;;;;;;;;;;4775220;29;20086;-95
2023/12/13 07:48:44;;;;;;;37.75;17.80;;;;;;;;;;4790389;29;20038;-94
2023/12/13 07:51:11;;;;;;;30.15;16.40;;;;;;;;;;4791138;29;20066;-94
2023/12/13 07:53:38;;;;;;;29.35;16.80;;;;;;;;;;4790561;29;20035;-96
2023/12/13 07:56:06;;;;;;;34.53;17.20;;;;;;;;;;4775945;29;20053;-95
2023/12/13 07:58:32;;;;;;;32.50;17.20;;;;;;;;;;4791128;29;20094;-94
2023/12/13 08:00:58;;;;;;;32.20;17.05;;;;;;;;;;4775587;29;20051;-93
2023/12/13 08:03:24;;;;;;;36.30;19.23;;;;;;;;;;4773855;29;20112;-94
2023/12/13 08:05:50;;;;;;;33.90;17.05;;;;;;;;;;4789805;29;20046;-95
2023/12/13 08:08:17;;;;;;;36.78;17.00;;;;;;;;;;4777535;29;20146;-94
2023/12/13 08:10:46;;;;;;;31.50;16.88;;;;;;;;;;4767657;29;20070;-93
2023/12/13 08:13:12;;;;;;;32.08;15.98;;;;;;;;;;4792775;29;20054;-95
2023/12/13 08:15:38;;;;;;;23.88;14.57;;;;;;;;;;4791933;29;20058;-96
2023/12/13 08:18:04;;;;;;;28.10;16.95;;;;;;;;;;4794465;29;20051;-95
2023/12/13 08:20:30;;;;;;;35.15;17.90;;;;;;;;;;4764841;29;20082;-88
2023/12/13 08:23:03;;;;;;;31.88;18.92;;;;;;;;;;4760513;29;20054;-93
2023/12/13 08:25:29;;;;;;;29.83;16.53;;;;;;;;;;4800760;29;20070;-94
2023/12/13 08:27:55;;;;;;;30.52;18.38;;;;;;;;;;4783596;29;20058;-91
2023/12/13 08:30:21;;;;;;;40.95;16.92;;;;;;;;;;4785713;29;20050;-90
2023/12/13 08:32:47;;;;;;;30.50;16.73;;;;;;;;;;4782784;29;20230;-96
2023/12/13 08:35:13;;;;;;;30.35;15.93;;;;;;;;;;4763805;29;20035;-95
2023/12/13 08:37:39;;;;;;;26.60;16.13;;;;;;;;;;4771191;29;20071;-96
2023/12/13 08:40:06;;;;;;;36.53;18.25;;;;;;;;;;4764337;29;20047;-95
2023/12/13 08:42:32;;;;;;;32.83;16.10;;;;;;;;;;4788270;29;20059;-92
2023/12/13 08:44:58;;;;;;;34.35;17.63;;;;;;;;;;4764130;29;20524;-89
2023/12/13 08:47:24;;;;;;;28.45;16.30;;;;;;;;;;4792240;29;20047;-94
2023/12/13 08:49:50;;;;;;;27.60;16.48;;;;;;;;;;4792992;29;20089;-90
2023/12/13 08:52:18;;;;;;;33.85;16.17;;;;;;;;;;4762181;29;20099;-90
2023/12/13 08:54:44;;;;;;;37.22;17.95;;;;;;;;;;4764094;29;20421;-92
2023/12/13 08:57:10;;;;;;;33.35;18.83;;;;;;;;;;4763178;29;20051;-94
2023/12/13 08:59:36;;;;;;;31.92;17.10;;;;;;;;;;4795287;29;20053;-92
2023/12/13 09:02:02;;;;;;;30.75;17.30;;;;;;;;;;4791224;29;20051;-96
2023/12/13 09:04:28;;;;;;;31.67;16.98;;;;;;;;;;4779803;29;20755;-89
2023/12/13 09:06:54;;;;;;;28.45;16.63;;;;;;;;;;4794779;29;20058;-93
2023/12/13 09:09:20;;;;;;;34.67;18.05;;;;;;;;;;4795174;29;20050;-90
2023/12/13 09:11:47;;;;;;;32.92;16.98;;;;;;;;;;4786165;29;20043;-93
2023/12/13 09:14:14;;;;;;;34.85;17.90;;;;;;;;;;4764122;29;20067;-94
2023/12/13 09:16:40;;;;;;;35.03;17.10;;;;;;;;;;4796100;29;20083;-88
2023/12/13 09:19:06;;;;;;;32.65;17.35;;;;;;;;;;4793848;29;20055;-94
2023/12/13 09:21:32;;;;;;;31.10;17.95;;;;;;;;;;4777211;29;20079;-95
2023/12/13 09:23:58;;;;;;;33.05;18.30;;;;;;;;;;4763383;29;20405;-94
2023/12/13 09:26:25;;;;;;;42.50;17.77;;;;;;;;;;4782109;29;20054;-88
2023/12/13 09:28:53;;;;;;;32.95;18.08;;;;;;;;;;4794997;29;20200;-95
2023/12/13 09:31:19;;;;;;;34.45;18.10;;;;;;;;;;4797284;29;20089;-93
2023/12/13 09:33:49;;;;;;;38.80;17.85;;;;;;;;;;4759283;29;20043;-89
2023/12/13 09:36:19;;;;;;;34.65;18.17;;;;;;;;;;4795649;29;20078;-91
2023/12/13 09:38:46;;;;;;;46.10;20.77;;;;;;;;;;4772882;29;20059;-95
2023/12/13 09:41:18;;;;;;;45.45;19.27;;;;;;;;;;4766867;29;20038;-90
2023/12/13 09:43:46;;;;;;;37.60;20.05;;;;;;;;;;4778157;29;20097;-91
2023/12/13 09:46:14;;;;;;;36.38;21.52;;;;;;;;;;4767233;29;20492;-96
2023/12/13 09:48:41;;;;;;;41.20;20.80;;;;;;;;;;4779552;29;20046;-91
2023/12/13 09:51:13;;;;;;;39.00;22.05;;;;;;;;;;4796254;29;20054;-91
2023/12/13 09:53:50;;;;;;;41.60;21.60;;;;;;;;;;4781106;29;20102;-90
2023/12/13 09:56:21;;;;;;;43.72;21.52;;;;;;;;;;4794007;29;20058;-89
2023/12/13 09:58:50;;;;;;;43.25;20.85;;;;;;;;;;4780094;29;20050;-89
2023/12/13 10:01:17;;;;;;;38.78;21.40;;;;;;;;;;4780857;29;20047;-90
2023/12/13 10:03:44;;;;;;;48.53;20.52;;;;;;;;;;4768164;29;20146;-91
2023/12/13 10:06:10;;;;;;;39.92;22.20;;;;;;;;;;4792794;29;20094;-92
2023/12/13 10:08:36;;;;;;;42.78;20.77;;;;;;;;;;4814017;29;20075;-91
2023/12/13 10:11:04;;;;;;;45.42;22.02;;;;;;;;;;4800630;29;20070;-93
2023/12/13 10:13:36;;;;;;;42.28;20.58;;;;;;;;;;4795864;29;20143;-90
2023/12/13 10:16:10;;;;;;;47.67;21.52;;;;;;;;;;4764489;29;20444;-90
2023/12/13 10:18:36;;;;;;;51.88;21.27;;;;;;;;;;4798136;29;20051;-92
2023/12/13 10:21:03;;;;;;;57.28;22.02;;;;;;;;;;4780317;29;20424;-96
2023/12/13 10:23:30;;;;;;;41.85;21.10;;;;;;;;;;4786436;29;20050;-94
2023/12/13 10:25:56;;;;;;;45.22;20.95;;;;;;;;;;4797718;29;20074;-96
2023/12/13 10:28:25;;;;;;;46.88;21.77;;;;;;;;;;4798728;29;20408;-96
2023/12/13 10:30:51;;;;;;;45.10;22.38;;;;;;;;;;4768951;29;20454;-93
2023/12/13 10:33:18;;;;;;;46.80;21.25;;;;;;;;;;4785789;29;20051;-92
2023/12/13 10:35:44;;;;;;;49.25;22.55;;;;;;;;;;4766223;29;21085;-95
2023/12/13 10:38:13;;;;;;;49.50;20.77;;;;;;;;;;4782612;29;20413;-94
2023/12/13 10:40:41;;;;;;;43.38;21.80;;;;;;;;;;4782462;29;20055;-93
2023/12/13 10:43:10;;;;;;;48.40;23.70;;;;;;;;;;4798362;29;20111;-95
2023/12/13 10:45:40;;;;;;;39.70;20.90;;;;;;;;;;4798882;29;20501;-92
2023/12/13 10:48:08;;;;;;;38.95;20.35;;;;;;;;;;4798143;29;20046;-96
2023/12/13 10:50:37;;;;;;;44.20;20.73;;;;;;;;;;4783680;29;20119;-94
2023/12/13 10:53:03;;;;;;;39.45;20.65;;;;;;;;;;4800219;29;20506;-96
2023/12/13 10:55:32;;;;;;;44.38;22.25;;;;;;;;;;4802251;29;20086;-96
2023/12/13 10:57:58;;;;;;;50.88;21.23;;;;;;;;;;4796071;29;20119;-96
2023/12/13 11:00:27;;;;;;;55.00;19.92;;;;;;;;;;4785417;29;20039;-96
2023/12/13 11:03:12;;;;;;;40.95;21.05;;;;;;;;;;4782718;29;20142;-96
2023/12/13 11:05:38;;;;;;;51.83;21.30;;;;;;;;;;4802302;29;20081;-96
2023/12/13 11:08:14;;;;;;;36.17;20.02;;;;;;;;;;4802668;29;20074;-95
2023/12/13 11:10:40;;;;;;;42.80;20.27;;;;;;;;;;4787879;29;20049;-95
2023/12/13 11:13:06;;;;;;;43.92;21.58;;;;;;;;;;4783426;29;20541;-96
2023/12/13 11:15:42;;;;;;;43.90;21.23;;;;;;;;;;4784282;29;20154;-96
2023/12/13 11:18:10;;;;;;;39.10;19.60;;;;;;;;;;4801785;29;20043;-94
2023/12/13 11:31:32;;;;;;;44.20;20.75;;;;;;;;;;4804836;24;20062;-96
2023/12/13 11:34:21;;;;;;;42.65;19.45;;;;;;;;;;4794124;29;20066;-95
2023/12/13 11:36:49;;;;;;;42.08;20.25;;;;;;;;;;4790313;29;20065;-95
2023/12/13 11:39:16;;;;;;;36.10;18.20;;;;;;;;;;4791193;29;20049;-94
2023/12/13 11:41:42;;;;;;;40.50;19.17;;;;;;;;;;4787268;30;20051;-92
2023/12/13 11:44:14;;;;;;;39.42;19.08;;;;;;;;;;4795069;29;20105;-93
2023/12/13 11:46:41;;;;;;;34.83;16.85;;;;;;;;;;4791354;30;21052;-91
2023/12/13 11:49:14;;;;;;;34.78;17.77;;;;;;;;;;4779894;29;20054;-91
2023/12/13 11:51:40;;;;;;;37.42;18.88;;;;;;;;;;4779358;29;20110;-94
2023/12/13 11:54:06;;;;;;;37.05;19.50;;;;;;;;;;4762132;30;20537;-93
2023/12/13 11:56:32;;;;;;;45.78;19.83;;;;;;;;;;4760460;30;20073;-92
2023/12/13 11:58:59;;;;;;;38.58;19.20;;;;;;;;;;4778495;29;20126;-88
2023/12/13 12:01:25;;;;;;;40.28;20.08;;;;;;;;;;4754432;29;20132;-92
2023/12/13 12:03:51;;;;;;;35.85;18.27;;;;;;;;;;4754119;30;20125;-91
2023/12/13 12:06:18;;;;;;;44.70;19.92;;;;;;;;;;4733650;30;20090;-94
2023/12/13 12:08:45;;;;;;;37.53;19.55;;;;;;;;;;4735849;30;20056;-91
2023/12/13 12:11:14;;;;;;;38.63;19.65;;;;;;;;;;4759617;30;20109;-90
2023/12/13 12:13:43;;;;;;;53.78;21.42;;;;;;;;;;4738082;30;20051;-93
2023/12/13 12:16:10;;;;;;;50.58;20.40;;;;;;;;;;4759309;30;20052;-92
2023/12/13 12:18:40;;;;;;;43.53;21.55;;;;;;;;;;4756302;30;20629;-90
2023/12/13 12:21:11;;;;;;;49.15;22.05;;;;;;;;;;4762024;30;20082;-90
2023/12/13 12:23:41;;;;;;;50.95;21.90;;;;;;;;;;4767063;30;20056;-93
2023/12/13 12:26:11;;;;;;;48.13;22.42;;;;;;;;;;4756301;30;20234;-89
2023/12/13 12:28:38;;;;;;;52.22;21.77;;;;;;;;;;4757828;30;20059;-96
2023/12/13 12:31:04;;;;;;;45.53;22.52;;;;;;;;;;4775247;30;20056;-88
2023/12/13 12:33:31;;;;;;;46.40;22.15;;;;;;;;;;4780900;30;20052;-89
2023/12/13 12:35:58;;;;;;;54.90;21.95;;;;;;;;;;4768529;30;20116;-88
2023/12/13 12:38:24;;;;;;;47.88;20.77;;;;;;;;;;4776168;30;20056;-90
2023/12/13 12:40:51;;;;;;;44.13;21.48;;;;;;;;;;4762506;30;20047;-89
2023/12/13 12:43:21;;;;;;;40.20;18.77;;;;;;;;;;4756574;30;20044;-89
2023/12/13 12:45:47;;;;;;;40.60;19.17;;;;;;;;;;4769895;30;20059;-89
2023/12/13 12:48:16;;;;;;;39.25;18.75;;;;;;;;;;4761374;30;20044;-89
2023/12/13 12:50:44;;;;;;;42.42;18.33;;;;;;;;;;4758270;30;20561;-89
2023/12/13 12:53:13;;;;;;;41.67;17.02;;;;;;;;;;4761711;30;20052;-89
2023/12/13 12:55:40;;;;;;;27.77;13.68;;;;;;;;;;4753995;30;20048;-89
2023/12/13 12:58:09;;;;;;;43.58;14.95;;;;;;;;;;4756015;30;20064;-89
2023/12/13 13:00:45;;;;;;;27.10;11.82;;;;;;;;;;4757751;30;20071;-89
2023/12/13 13:03:11;;;;;;;28.60;12.82;;;;;;;;;;4756035;30;20059;-90
2023/12/13 13:05:38;;;;;;;22.80;11.43;;;;;;;;;;4753349;30;20052;-89
2023/12/13 13:08:04;;;;;;;18.15;10.05;;;;;;;;;;4754924;30;20052;-89
2023/12/13 13:10:51;;;;;;;23.20;9.70;;;;;;;;;;4737791;30;20071;-90
2023/12/13 13:13:54;;;;;;;23.63;8.68;;;;;;;;;;4767860;30;20070;-94
2023/12/13 13:16:23;;;;;;;14.10;7.78;;;;;;;;;;4763148;30;20475;-93
2023/12/13 13:18:50;;;;;;;17.77;7.45;;;;;;;;;;4742615;30;20063;-89
2023/12/13 13:21:16;;;;;;;20.25;8.00;;;;;;;;;;4739836;30;20040;-89
2023/12/13 13:23:45;;;;;;;21.40;7.10;;;;;;;;;;4772048;30;20607;-89
2023/12/13 13:26:11;;;;;;;15.15;7.20;;;;;;;;;;4762629;30;20055;-89
2023/12/13 13:28:37;;;;;;;19.08;8.00;;;;;;;;;;4756684;30;20054;-88
2023/12/13 13:31:07;;;;;;;12.27;7.13;;;;;;;;;;4766918;30;20067;-89
2023/12/13 13:33:38;;;;;;;9.40;5.63;;;;;;;;;;4769896;30;20051;-88
2023/12/13 13:36:06;;;;;;;12.45;5.35;;;;;;;;;;4765297;30;20058;-89
2023/12/13 13:38:32;;;;;;;12.35;5.97;;;;;;;;;;4752041;30;20077;-90
2023/12/13 13:40:59;;;;;;;9.70;5.68;;;;;;;;;;4751589;30;20058;-89
2023/12/13 13:43:26;;;;;;;11.40;5.72;;;;;;;;;;4751630;30;20486;-90
2023/12/13 13:48:38;;;;;;;8.70;4.50;;;;;;;;;;5365257;24;20428;-90
2023/12/13 13:51:36;;;;;;;11.93;4.90;;;;;;;;;;4823344;29;20051;-90
2023/12/13 13:54:10;;;;;;;8.85;5.03;;;;;;;;;;4812535;29;20073;-94
2023/12/13 13:56:37;;;;;;;5.43;3.85;;;;;;;;;;4803185;29;20054;-90
2023/12/13 13:59:09;;;;;;;5.90;3.70;;;;;;;;;;4812883;29;20071;-89
2023/12/13 14:01:37;;;;;;;6.97;4.45;;;;;;;;;;4805161;29;20055;-88
2023/12/13 14:17:58;;;;;;;5.63;3.72;;;;;;;;;;4807198;29;20408;-92
2023/12/13 14:20:28;;;;;;;5.90;3.92;;;;;;;;;;4777553;29;20135;-92
2023/12/13 14:23:08;;;;;;;4.70;3.38;;;;;;;;;;4784863;29;20050;-94
2023/12/13 14:25:40;;;;;;;5.10;3.90;;;;;;;;;;4785583;29;20217;-93
2023/12/13 14:28:07;;;;;;;5.68;3.42;;;;;;;;;;4762926;29;20055;-93
2023/12/13 14:30:40;;;;;;;4.15;3.05;;;;;;;;;;4824074;24;20070;-93
2023/12/13 14:33:11;;;;;;;4.60;3.22;;;;;;;;;;4794045;29;20054;-92
2023/12/13 14:35:51;;;;;;;4.55;3.40;;;;;;;;;;4802941;29;20086;-90
2023/12/13 14:38:23;;;;;;;5.45;3.30;;;;;;;;;;4802838;29;20078;-89
2023/12/13 14:41:01;;;;;;;6.93;3.15;;;;;;;;;;4787858;29;20058;-90
2023/12/13 14:43:28;;;;;;;5.20;4.15;;;;;;;;;;4786085;29;20158;-90
2023/12/13 14:46:36;;;;;;;6.38;3.88;;;;;;;;;;4941130;24;20055;-92
2023/12/13 14:49:12;;;;;;;6.82;4.70;;;;;;;;;;4794780;29;20051;-89